createdAt,value
2022-10-23T00:01:44.462Z,10.52
2022-10-23T00:06:43.210Z,10.15
2022-10-23T00:11:42.287Z,9.48
2022-10-23T00:16:42.961Z,10.75
2022-10-23T00:21:41.167Z,9.68
2022-10-23T00:26:40.720Z,9.90
2022-10-23T00:31:39.705Z,9.43
2022-10-23T00:36:39.509Z,8.90
2022-10-23T00:41:37.750Z,9.77
2022-10-23T00:46:36.913Z,9.57
2022-10-23T00:51:37.717Z,9.70
2022-10-23T00:56:39.388Z,9.10
2022-10-23T01:01:38.079Z,8.93
2022-10-23T01:06:37.878Z,8.98
2022-10-23T01:11:41.214Z,8.98
2022-10-23T01:16:42.921Z,9.90
2022-10-23T01:22:08.076Z,9.38
2022-10-23T01:27:27.794Z,9.32
2022-10-23T01:32:30.112Z,9.82
2022-10-23T01:37:31.123Z,10.25
2022-10-23T01:42:34.715Z,9.63
2022-10-23T01:47:36.227Z,10.40
2022-10-23T01:52:38.210Z,9.95
2022-10-23T01:57:38.664Z,12.15
2022-10-23T02:02:40.352Z,11.25
2022-10-23T02:07:39.275Z,11.75
2022-10-23T02:12:41.575Z,12.13
2022-10-23T02:17:44.639Z,10.65
2022-10-23T02:22:47.890Z,10.60
2022-10-23T02:27:48.314Z,10.25
2022-10-23T02:32:50.171Z,11.18
2022-10-23T02:37:53.394Z,9.75
2022-10-23T02:42:57.852Z,11.63
2022-10-23T02:48:01.661Z,9.30
2022-10-23T02:53:06.431Z,9.17
2022-10-23T02:58:10.521Z,8.82
2022-10-23T03:03:17.241Z,8.65
2022-10-23T03:08:15.725Z,8.38
2022-10-23T03:13:14.215Z,9.45
2022-10-23T03:18:15.654Z,9.55
2022-10-23T03:28:17.196Z,8.95
2022-10-23T03:33:16.948Z,10.43
2022-10-23T03:38:15.199Z,10.32
2022-10-23T03:43:13.751Z,10.60
2022-10-23T03:48:12.729Z,10.93
2022-10-23T03:53:12.427Z,12.05
2022-10-23T03:58:10.872Z,11.65
2022-10-23T04:03:09.076Z,11.30
2022-10-23T04:08:08.580Z,10.95
2022-10-23T04:13:08.405Z,10.88
2022-10-23T04:18:08.129Z,10.60
2022-10-23T04:23:06.949Z,10.07
2022-10-23T04:28:06.030Z,10.07
2022-10-23T04:33:10.245Z,10.25
2022-10-23T04:38:08.898Z,10.82
2022-10-23T04:43:07.246Z,10.35
2022-10-23T04:48:10.440Z,11.93
2022-10-23T04:53:27.603Z,10.00
2022-10-23T05:03:42.143Z,8.90
2022-10-23T05:08:41.015Z,10.73
2022-10-23T05:13:50.903Z,9.85
2022-10-23T05:18:50.963Z,10.10
2022-10-23T05:23:49.248Z,10.45
2022-10-23T05:28:47.962Z,10.45
2022-10-23T05:33:50.434Z,11.10
2022-10-23T05:38:52.163Z,11.73
2022-10-23T05:43:52.433Z,10.50
2022-10-23T05:49:10.694Z,11.50
2022-10-23T05:54:21.346Z,11.82
2022-10-23T05:59:27.740Z,10.80
2022-10-23T06:04:34.874Z,11.77
2022-10-23T06:09:51.512Z,10.35
2022-10-23T06:14:51.852Z,11.80
2022-10-23T06:19:52.957Z,14.00
2022-10-23T06:24:51.861Z,10.07
2022-10-23T06:29:55.668Z,10.10
2022-10-23T06:34:55.278Z,10.13
2022-10-23T06:39:53.560Z,8.85
2022-10-23T06:45:12.070Z,8.75
2022-10-23T06:50:20.675Z,9.80
2022-10-23T06:55:19.308Z,9.38
2022-10-23T07:00:18.202Z,7.25
2022-10-23T07:05:24.771Z,7.78
2022-10-23T07:10:23.590Z,6.63
2022-10-23T07:15:29.837Z,4.75
2022-10-23T07:20:30.765Z,4.53
2022-10-23T07:25:29.251Z,6.15
2022-10-23T07:30:29.883Z,5.00
2022-10-23T07:35:34.276Z,5.15
2022-10-23T07:40:39.286Z,4.85
2022-10-23T07:45:40.463Z,6.97
2022-10-23T07:50:52.697Z,4.63
2022-10-23T07:55:55.158Z,4.53
2022-10-23T08:00:55.949Z,4.03
2022-10-23T08:06:02.239Z,3.15
2022-10-23T08:11:01.337Z,4.47
2022-10-23T08:16:04.939Z,3.20
2022-10-23T08:21:22.877Z,3.35
2022-10-23T08:26:23.329Z,4.45
2022-10-23T08:31:22.284Z,5.57
2022-10-23T08:36:42.234Z,9.88
2022-10-23T08:41:44.648Z,7.38
2022-10-23T08:46:47.242Z,8.00
2022-10-23T08:52:11.726Z,3.25
2022-10-23T08:57:14.739Z,2.95
2022-10-23T09:02:17.586Z,3.63
2022-10-23T09:07:22.538Z,8.25
2022-10-23T09:12:22.377Z,6.07
2022-10-23T09:17:24.207Z,15.38
2022-10-23T09:22:23.891Z,10.57
2022-10-23T09:27:22.205Z,6.70
2022-10-23T09:32:23.508Z,14.05
2022-10-23T09:37:24.972Z,21.35
2022-10-23T09:42:24.493Z,3.22
2022-10-23T09:47:24.409Z,3.15
2022-10-23T09:52:30.551Z,3.20
2022-10-23T09:57:30.607Z,3.13
2022-10-23T10:02:29.621Z,7.05
2022-10-23T10:07:43.379Z,4.15
2022-10-23T10:12:47.210Z,2.88
2022-10-23T10:17:48.783Z,3.73
2022-10-23T10:22:51.449Z,2.97
2022-10-23T10:27:54.374Z,2.70
2022-10-23T10:32:55.601Z,2.25
2022-10-23T10:38:04.547Z,2.90
2022-10-23T10:43:16.648Z,2.88
2022-10-23T10:48:26.033Z,1.60
2022-10-23T10:53:59.216Z,2.38
2022-10-23T10:58:59.278Z,2.45
2022-10-23T11:03:59.450Z,3.08
2022-10-23T11:09:19.277Z,2.10
2022-10-23T11:14:21.439Z,2.17
2022-10-23T11:19:22.153Z,2.65
2022-10-23T11:24:35.453Z,2.88
2022-10-23T11:29:48.240Z,3.20
2022-10-23T11:35:01.417Z,3.05
2022-10-23T11:40:03.202Z,4.53
2022-10-23T11:45:02.860Z,2.90
2022-10-23T11:50:27.031Z,2.53
2022-10-23T11:55:26.650Z,1.70
2022-10-23T12:00:30.952Z,2.05
2022-10-23T12:05:31.894Z,1.90
2022-10-23T12:10:34.309Z,1.95
2022-10-23T12:15:35.480Z,2.58
2022-10-23T12:20:38.816Z,2.33
2022-10-23T12:25:41.489Z,2.33
2022-10-23T12:30:45.251Z,1.90
2022-10-23T12:36:04.360Z,4.03
2022-10-23T12:41:05.904Z,2.40
2022-10-23T12:46:19.300Z,2.40
2022-10-23T12:51:21.797Z,2.97
2022-10-23T12:56:20.389Z,2.75
2022-10-23T13:01:27.359Z,1.77
2022-10-23T13:06:26.178Z,2.25
2022-10-23T13:11:26.153Z,2.40
2022-10-23T13:16:28.275Z,2.17
2022-10-23T13:21:28.587Z,2.78
2022-10-23T13:26:31.618Z,2.50
2022-10-23T13:31:34.830Z,2.63
2022-10-23T13:36:35.856Z,2.05
2022-10-23T13:41:38.107Z,2.00
2022-10-23T13:46:37.818Z,4.80
2022-10-23T13:51:42.481Z,3.05
2022-10-23T13:56:43.785Z,3.13
2022-10-23T14:01:45.069Z,2.80
2022-10-23T14:06:43.921Z,3.13
2022-10-23T14:11:42.310Z,3.17
2022-10-23T14:16:40.689Z,3.08
2022-10-23T14:21:40.427Z,4.00
2022-10-23T14:26:38.737Z,3.70
2022-10-23T14:31:37.001Z,4.28
2022-10-23T14:36:49.303Z,4.05
2022-10-23T14:41:50.716Z,3.93
2022-10-23T14:46:48.966Z,5.10
2022-10-23T14:51:47.231Z,4.85
2022-10-23T14:56:45.608Z,3.83
2022-10-23T15:01:48.350Z,2.90
2022-10-23T15:06:47.428Z,3.25
2022-10-23T15:11:45.611Z,4.45
2022-10-23T15:16:46.057Z,4.47
2022-10-23T15:21:44.352Z,2.67
2022-10-23T15:26:44.541Z,2.78
2022-10-23T15:31:43.861Z,3.22
2022-10-23T15:36:44.920Z,2.45
2022-10-23T15:41:43.514Z,4.95
2022-10-23T15:46:42.125Z,4.35
2022-10-23T15:51:41.067Z,3.10
2022-10-23T15:56:40.743Z,4.18
2022-10-23T16:01:39.170Z,3.90
2022-10-23T16:06:37.689Z,3.70
2022-10-23T16:11:38.498Z,4.82
2022-10-23T16:16:38.202Z,5.60
2022-10-23T16:21:37.363Z,8.07
2022-10-23T16:26:36.096Z,4.68
2022-10-23T16:31:34.473Z,3.78
2022-10-23T16:36:34.243Z,4.20
2022-10-23T16:41:55.818Z,6.07
2022-10-23T16:46:58.418Z,7.18
2022-10-23T16:51:58.025Z,4.72
2022-10-23T16:56:56.211Z,3.65
2022-10-23T17:01:54.619Z,2.88
2022-10-23T17:06:52.936Z,2.50
2022-10-23T17:11:53.889Z,3.47
2022-10-23T17:16:52.875Z,3.90
2022-10-23T17:21:51.313Z,3.55
2022-10-23T17:26:49.599Z,4.10
2022-10-23T17:31:50.255Z,2.78
2022-10-23T17:36:49.648Z,2.50
2022-10-23T17:41:48.268Z,2.47
2022-10-23T17:46:46.576Z,2.83
2022-10-23T17:51:46.166Z,2.60
2022-10-23T17:56:44.433Z,3.17
2022-10-23T18:01:43.906Z,3.13
2022-10-23T18:06:43.038Z,3.38
2022-10-23T18:11:45.573Z,3.08
2022-10-23T18:16:46.679Z,2.40
2022-10-23T18:21:45.215Z,2.92
2022-10-23T18:26:46.175Z,3.45
2022-10-23T18:31:45.188Z,11.65
2022-10-23T18:36:43.434Z,5.70
2022-10-23T18:41:42.557Z,7.28
2022-10-23T18:46:42.165Z,4.75
2022-10-23T18:51:40.471Z,4.53
2022-10-23T18:56:39.851Z,4.47
2022-10-23T19:01:38.281Z,3.13
2022-10-23T19:06:38.261Z,3.03
2022-10-23T19:11:37.028Z,3.78
2022-10-23T19:16:36.736Z,4.13
2022-10-23T19:21:40.844Z,4.95
2022-10-23T19:26:41.321Z,3.60
2022-10-23T19:31:43.198Z,3.47
2022-10-23T19:36:41.523Z,4.45
2022-10-23T19:41:41.124Z,3.22
2022-10-23T19:46:39.400Z,10.40
2022-10-23T19:51:38.136Z,10.50
2022-10-23T19:56:37.309Z,9.35
2022-10-23T20:01:37.043Z,6.30
2022-10-23T20:06:35.739Z,5.07
2022-10-23T20:11:34.087Z,4.85
2022-10-23T20:16:34.065Z,4.97
2022-10-23T20:21:33.976Z,6.60
2022-10-23T20:26:32.152Z,9.50
2022-10-23T20:31:30.398Z,9.45
2022-10-23T20:36:29.588Z,6.05
2022-10-23T20:41:29.866Z,4.05
2022-10-23T20:46:28.502Z,5.25
2022-10-23T20:51:27.000Z,3.65
2022-10-23T20:56:30.270Z,3.05
2022-10-23T21:01:30.459Z,3.92
2022-10-23T21:06:40.783Z,3.33
2022-10-23T21:11:46.263Z,3.67
2022-10-23T21:16:46.680Z,3.42
2022-10-23T21:21:45.042Z,3.25
2022-10-23T21:26:43.667Z,2.88
2022-10-23T21:31:41.910Z,3.45
2022-10-23T21:37:07.529Z,3.63
2022-10-23T21:42:04.273Z,2.85
2022-10-23T21:47:02.514Z,3.40
2022-10-23T21:52:02.268Z,2.95
2022-10-23T21:57:00.538Z,3.42
2022-10-23T22:01:58.922Z,2.67
2022-10-23T22:06:57.362Z,3.60
2022-10-23T22:11:57.288Z,3.20
2022-10-23T22:16:55.851Z,3.60
2022-10-23T22:21:54.137Z,3.08
2022-10-23T22:26:54.068Z,2.60
2022-10-23T22:31:53.736Z,3.20
2022-10-23T22:36:52.057Z,2.65
2022-10-23T22:41:50.565Z,2.67
2022-10-23T22:46:48.814Z,3.10
2022-10-23T22:51:48.500Z,2.42
2022-10-23T22:56:46.786Z,2.88
2022-10-23T23:01:46.267Z,2.97
2022-10-23T23:06:44.763Z,3.22
2022-10-23T23:11:51.332Z,3.00
2022-10-23T23:16:50.546Z,3.35
2022-10-23T23:21:48.842Z,2.90
2022-10-23T23:26:48.476Z,3.22
2022-10-23T23:31:46.724Z,3.40
2022-10-23T23:36:44.977Z,3.10
2022-10-23T23:41:43.178Z,3.25
2022-10-23T23:46:42.720Z,3.88
2022-10-23T23:51:40.868Z,3.28
2022-10-23T23:56:39.349Z,3.35
